Airfield :







YOU CAN JOIN US ON...

 
LOGIN :

Register | Disclaimer

   EN    FR    IT 

 









Legend :    VFR   Marginal VFR   IFR   Intensive IFR   Very Intensive IFR
Visi :
Ceiling :
>= 8 km
>= 3000ft
5 to 8 km
1000 to 3000 ft
1500m to 5 km
500 to 1000 ft
800 to 1500m
200 to 500 ft
< 800m
< 200 ft
Symbols :   Thunderstorms  Fog  Heavy snow  Heavy precipitations  Wind > 20 kt







- Airport Elevation : 408 ft


KMLT - Millinocket Municipal

CURRENT METAR :
  • 161353Z AUTO 30014KT 10SM FEW031 15/08 A2998 RMK AO2 SLP156 T01500078

EXPIRED METARs :
  • 161253Z AUTO 31012G19KT 10SM FEW028 14/08 A2998 RMK AO2 SLP158 T01390078
  • 161153Z AUTO 29010G17KT 240V320 10SM CLR 13/08 A2999 RMK AO2 SLP159 T01330078 10139 20117 51010

TAF N/A
No reported NOTAMs for that airfield.



MET'MAP, your aeronautical weather chart ! - Copyright ORBIFLY December 2007 - Disclaimer

ORBIFLY MET'MAP TEAM :

Programming & Development : Alexandra Zaïnal
Concept & Development : Baudouin d'Aumeries
Co-Development & Prog : Marc-Olivier Méhu
Technical & hardware support : Manuel Goepfert

Contact : metmap@orbifly.com




SOURCES & CREDITS :

   NOAA